Time;durP1;ratioP1;P1;durP2;ratioP2;P2;SDS_P1;SDS_P2;PMS_P1;PMS_P2;Temp;Humidity;BMP_temperature;BMP_pressure;BME280_temperature;BME280_humidity;BME280_pressure;Samples;Min_cycle;Max_cycle;Signal;HPM_P1;HPM_P2
2023/12/29 00:00:48;;;;;;;12.07;10.77;;;;;;;-142.06;100.00;64312.41;5055175;28;20276;-80
2023/12/29 00:03:16;;;;;;;12.57;10.90;;;;;;;-142.06;100.00;64312.41;5050833;28;20198;-81
2023/12/29 00:05:43;;;;;;;13.03;11.13;;;;;;;-142.06;100.00;64312.41;5035688;28;20662;-79
2023/12/29 00:08:10;;;;;;;12.63;11.03;;;;;;;-142.06;100.00;64312.41;5037638;28;20201;-80
2023/12/29 00:10:37;;;;;;;12.13;10.77;;;;;;;-142.06;100.00;64312.41;5040734;28;20201;-80
2023/12/29 00:13:04;;;;;;;11.57;10.37;;;;;;;-142.06;100.00;64312.41;5036453;28;20217;-83
2023/12/29 00:15:31;;;;;;;11.83;10.63;;;;;;;-142.06;100.00;64312.41;5044191;28;20248;-79
2023/12/29 00:17:58;;;;;;;12.47;10.97;;;;;;;-142.06;100.00;64312.41;5030454;28;20235;-80
2023/12/29 00:20:25;;;;;;;12.90;10.70;;;;;;;-142.06;100.00;64312.41;5043914;28;20291;-80
2023/12/29 00:23:06;;;;;;;11.77;10.00;;;;;;;-142.06;100.00;64312.41;5036241;28;20241;-78
2023/12/29 00:25:36;;;;;;;13.30;11.27;;;;;;;-142.06;100.00;64312.41;5037815;28;20204;-79
2023/12/29 00:28:04;;;;;;;15.57;12.30;;;;;;;-142.06;100.00;64312.41;5037127;28;20201;-79
2023/12/29 00:30:31;;;;;;;15.47;12.90;;;;;;;-142.06;100.00;64312.41;5053473;28;20252;-80
2023/12/29 00:33:18;;;;;;;13.90;11.43;;;;;;;-142.06;100.00;64312.41;5035548;28;20201;-78
2023/12/29 00:35:45;;;;;;;16.27;12.70;;;;;;;-142.06;100.00;64312.41;5037018;28;20202;-80
2023/12/29 00:38:11;;;;;;;12.53;10.90;;;;;;;-142.06;100.00;64312.41;5052617;28;20241;-79
2023/12/29 00:40:38;;;;;;;11.83;10.47;;;;;;;-142.06;100.00;64312.41;5039525;28;20675;-80
2023/12/29 00:43:06;;;;;;;11.43;9.97;;;;;;;-142.06;100.00;64312.41;5054099;28;20271;-82
2023/12/29 00:45:35;;;;;;;12.07;10.53;;;;;;;-142.06;100.00;64312.41;5036451;28;20223;-80
2023/12/29 00:48:03;;;;;;;11.43;9.53;;;;;;;-142.06;100.00;64312.41;5037122;28;20201;-79
2023/12/29 00:50:30;;;;;;;11.63;9.97;;;;;;;-142.06;100.00;64312.41;5050185;28;20273;-82
2023/12/29 00:52:57;;;;;;;13.03;10.63;;;;;;;-142.06;100.00;64312.41;5053188;28;20207;-83
2023/12/29 00:55:24;;;;;;;11.83;10.57;;;;;;;-142.06;100.00;64312.41;5055653;28;20201;-79
2023/12/29 00:57:51;;;;;;;13.20;10.57;;;;;;;-142.06;100.00;64312.41;5035289;28;20217;-80
2023/12/29 01:00:17;;;;;;;11.63;10.27;;;;;;;-142.06;100.00;64312.41;5040139;28;20201;-78
2023/12/29 01:02:45;;;;;;;16.73;15.03;;;;;;;-142.06;100.00;64312.41;5036261;28;20221;-80
2023/12/29 01:05:17;;;;;;;12.40;11.10;;;;;;;-142.06;100.00;64312.41;5033579;28;20202;-80
2023/12/29 01:07:44;;;;;;;13.60;11.17;;;;;;;-142.06;100.00;64312.41;5036344;28;20201;-80
2023/12/29 01:10:11;;;;;;;13.60;11.43;;;;;;;-142.06;100.00;64312.41;5022238;28;20192;-80
2023/12/29 01:12:38;;;;;;;12.83;10.83;;;;;;;-142.06;100.00;64312.41;5030811;28;20205;-79
2023/12/29 01:15:06;;;;;;;12.30;10.60;;;;;;;-142.06;100.00;64312.41;5036534;28;20273;-80
2023/12/29 01:17:33;;;;;;;12.30;10.93;;;;;;;-142.06;100.00;64312.41;5050310;28;20256;-79
2023/12/29 01:20:00;;;;;;;12.10;10.23;;;;;;;-142.06;100.00;64312.41;5033106;28;20209;-80
2023/12/29 01:22:26;;;;;;;13.27;11.37;;;;;;;-142.06;100.00;64312.41;5032867;28;20225;-80
2023/12/29 01:24:53;;;;;;;12.73;10.77;;;;;;;-142.06;100.00;64312.41;5045491;28;20229;-79
2023/12/29 01:27:20;;;;;;;12.23;10.80;;;;;;;-142.06;100.00;64312.41;5042461;28;20206;-80
2023/12/29 01:29:47;;;;;;;12.50;10.87;;;;;;;-142.06;100.00;64312.41;5032002;28;20257;-79
2023/12/29 01:32:14;;;;;;;13.00;10.93;;;;;;;-142.06;100.00;64312.41;5050628;28;20193;-80
2023/12/29 01:34:41;;;;;;;12.53;10.73;;;;;;;-142.06;100.00;64312.41;5040438;28;20196;-79
2023/12/29 01:37:08;;;;;;;12.20;10.23;;;;;;;-142.06;100.00;64312.41;5034855;28;20230;-80
2023/12/29 01:39:36;;;;;;;12.33;10.33;;;;;;;-142.06;100.00;64312.41;5025228;28;20201;-79
2023/12/29 01:42:04;;;;;;;13.60;11.40;;;;;;;-142.06;100.00;64312.41;5032699;28;20214;-80
2023/12/29 01:44:31;;;;;;;13.40;11.67;;;;;;;-142.06;100.00;64312.41;5030193;28;20206;-80
2023/12/29 01:47:01;;;;;;;13.40;10.83;;;;;;;-142.06;100.00;64312.41;5020365;28;20212;-83
2023/12/29 01:49:28;;;;;;;11.90;9.83;;;;;;;-142.06;100.00;64312.41;5034224;28;20327;-79
2023/12/29 01:52:00;;;;;;;11.83;10.37;;;;;;;-142.06;100.00;64312.41;5051791;28;20273;-81
2023/12/29 01:54:40;;;;;;;11.43;10.07;;;;;;;-142.06;100.00;64312.41;5052448;28;20193;-80
2023/12/29 01:57:08;;;;;;;10.97;9.47;;;;;;;-142.06;100.00;64312.41;5030132;28;20662;-80
2023/12/29 01:59:37;;;;;;;11.40;9.83;;;;;;;-142.06;100.00;64312.41;5041434;28;20205;-80
2023/12/29 02:02:05;;;;;;;11.83;10.63;;;;;;;-142.06;100.00;64312.41;5037753;28;20218;-79
2023/12/29 02:04:32;;;;;;;12.63;11.30;;;;;;;-142.06;100.00;64312.41;5035172;28;20197;-79
2023/12/29 02:06:59;;;;;;;14.83;11.80;;;;;;;-142.06;100.00;64312.41;5032060;28;20224;-82
2023/12/29 02:09:27;;;;;;;16.77;13.17;;;;;;;-142.06;100.00;64312.41;5024624;28;20209;-82
2023/12/29 02:11:54;;;;;;;15.27;13.00;;;;;;;-142.06;100.00;64312.41;5034381;28;20287;-81
2023/12/29 02:14:22;;;;;;;19.30;14.87;;;;;;;-142.06;100.00;64312.41;5035069;28;20193;-82
2023/12/29 02:16:57;;;;;;;17.30;14.37;;;;;;;-142.06;100.00;64312.41;5028891;28;20197;-81
2023/12/29 02:19:41;;;;;;;16.67;13.73;;;;;;;-142.06;100.00;64312.41;5035291;28;20212;-80
2023/12/29 02:22:10;;;;;;;15.77;12.67;;;;;;;-142.06;100.00;64312.41;5035229;28;20740;-80
2023/12/29 02:24:38;;;;;;;15.30;12.73;;;;;;;-142.06;100.00;64312.41;5018690;28;20197;-80
2023/12/29 02:27:10;;;;;;;18.13;13.80;;;;;;;-142.06;100.00;64312.41;5037492;28;20231;-81
2023/12/29 02:30:21;;;;;;;14.13;12.07;;;;;;;-142.06;100.00;64312.41;5051381;28;20217;-79
2023/12/29 02:32:49;;;;;;;12.80;11.50;;;;;;;-142.06;100.00;64312.41;5034915;28;20259;-80
2023/12/29 02:35:23;;;;;;;14.17;11.37;;;;;;;-142.06;100.00;64312.41;5035127;28;20206;-79
2023/12/29 02:37:52;;;;;;;12.73;11.20;;;;;;;-142.06;100.00;64312.41;5046904;28;20239;-79
2023/12/29 02:40:19;;;;;;;12.70;10.87;;;;;;;-142.06;100.00;64312.41;5034930;28;20201;-80
2023/12/29 02:42:47;;;;;;;12.67;11.37;;;;;;;-142.06;100.00;64312.41;5034427;28;20701;-81
2023/12/29 02:45:17;;;;;;;12.07;10.50;;;;;;;-142.06;100.00;64312.41;5034838;28;20297;-80
2023/12/29 02:47:44;;;;;;;12.77;10.60;;;;;;;-142.06;100.00;64312.41;5050890;28;20296;-79
2023/12/29 02:50:12;;;;;;;11.73;10.50;;;;;;;-142.06;100.00;64312.41;5034582;28;20205;-79
2023/12/29 02:52:38;;;;;;;11.90;10.33;;;;;;;-142.06;100.00;64312.41;5034295;28;20212;-79
2023/12/29 02:55:06;;;;;;;11.60;10.40;;;;;;;-142.06;100.00;64312.41;5056353;28;20197;-79
2023/12/29 02:57:32;;;;;;;12.47;10.13;;;;;;;-142.06;100.00;64312.41;5037422;28;20259;-83
2023/12/29 03:00:00;;;;;;;12.27;10.23;;;;;;;-142.06;100.00;64312.41;5018499;28;20255;-82
2023/12/29 03:02:27;;;;;;;12.73;10.07;;;;;;;-142.06;100.00;64312.41;5050402;28;20217;-84
2023/12/29 03:04:54;;;;;;;13.50;11.70;;;;;;;-142.06;100.00;64312.41;5034585;28;20196;-80
2023/12/29 03:07:21;;;;;;;13.07;10.53;;;;;;;-142.06;100.00;64312.41;5034274;28;20213;-80
2023/12/29 03:09:47;;;;;;;11.27;9.53;;;;;;;-142.06;100.00;64312.41;5050970;28;20205;-79
2023/12/29 03:12:14;;;;;;;11.17;9.53;;;;;;;-142.06;100.00;64312.41;5032792;28;20792;-80
2023/12/29 03:14:41;;;;;;;10.63;9.20;;;;;;;-142.06;100.00;64312.41;5034453;28;20197;-79
2023/12/29 03:17:09;;;;;;;12.33;10.40;;;;;;;-142.06;100.00;64312.41;5047975;28;20222;-79
2023/12/29 03:19:36;;;;;;;12.00;9.87;;;;;;;-142.06;100.00;64312.41;5050846;28;20270;-79
2023/12/29 03:22:03;;;;;;;11.87;9.23;;;;;;;-142.06;100.00;64312.41;5017550;28;20217;-79
2023/12/29 03:24:30;;;;;;;11.37;9.73;;;;;;;-142.06;100.00;64312.41;5031611;28;20197;-79
2023/12/29 03:26:57;;;;;;;11.63;9.70;;;;;;;-142.06;100.00;64312.41;5032211;28;20674;-81
2023/12/29 03:29:24;;;;;;;11.17;9.50;;;;;;;-142.06;100.00;64312.41;5018460;28;20276;-79
2023/12/29 03:31:52;;;;;;;10.87;9.20;;;;;;;-142.06;100.00;64312.41;5037506;28;20213;-79
2023/12/29 03:34:19;;;;;;;10.87;8.60;;;;;;;-142.06;100.00;64312.41;5020533;28;20204;-81
2023/12/29 03:36:47;;;;;;;11.57;9.37;;;;;;;-142.06;100.00;64312.41;5034315;28;20263;-79
2023/12/29 03:39:14;;;;;;;11.50;9.53;;;;;;;-142.06;100.00;64312.41;5054567;28;20190;-79
2023/12/29 03:41:42;;;;;;;10.33;9.23;;;;;;;-142.06;100.00;64312.41;5048156;28;20654;-81
2023/12/29 03:44:08;;;;;;;11.87;9.23;;;;;;;-142.06;100.00;64312.41;5053324;28;20255;-80
2023/12/29 03:46:36;;;;;;;10.90;9.10;;;;;;;-142.06;100.00;64312.41;5034177;28;20206;-80
2023/12/29 03:49:03;;;;;;;10.57;8.63;;;;;;;-142.06;100.00;64312.41;5032573;28;20190;-80
2023/12/29 03:51:30;;;;;;;10.53;8.90;;;;;;;-142.06;100.00;64312.41;5034478;28;20186;-79
2023/12/29 03:53:58;;;;;;;10.30;8.43;;;;;;;-142.06;100.00;64312.41;5017514;28;20222;-79
2023/12/29 03:56:25;;;;;;;9.73;8.13;;;;;;;-142.06;100.00;64312.41;5050614;28;20202;-82
2023/12/29 03:58:52;;;;;;;8.97;7.73;;;;;;;-142.06;100.00;64312.41;5036284;28;20201;-80
2023/12/29 04:01:19;;;;;;;10.47;9.03;;;;;;;-142.06;100.00;64312.41;5034349;28;20199;-79
2023/12/29 04:03:47;;;;;;;9.43;8.07;;;;;;;-142.06;100.00;64312.41;5034273;28;20291;-80
2023/12/29 04:06:14;;;;;;;9.30;8.30;;;;;;;-142.06;100.00;64312.41;5036020;28;20292;-81
2023/12/29 04:08:40;;;;;;;9.33;8.30;;;;;;;-142.06;100.00;64312.41;5021084;28;20205;-79
2023/12/29 04:11:07;;;;;;;9.80;8.10;;;;;;;-142.06;100.00;64312.41;5041277;28;20221;-86
2023/12/29 04:13:34;;;;;;;9.83;8.23;;;;;;;-142.06;100.00;64312.41;5053918;28;20212;-81
2023/12/29 04:16:01;;;;;;;11.37;9.43;;;;;;;-142.06;100.00;64312.41;5053887;28;20208;-79
2023/12/29 04:18:29;;;;;;;10.50;8.27;;;;;;;-142.06;100.00;64312.41;5054884;28;20251;-78
2023/12/29 04:20:56;;;;;;;8.57;7.67;;;;;;;-142.06;100.00;64312.41;5056861;28;20186;-78
2023/12/29 04:23:23;;;;;;;8.30;7.23;;;;;;;-142.06;100.00;64312.41;5054361;28;20225;-79
2023/12/29 04:25:50;;;;;;;8.23;7.20;;;;;;;-142.06;100.00;64312.41;5053991;28;20839;-80
2023/12/29 04:28:17;;;;;;;8.80;7.00;;;;;;;-142.06;100.00;64312.41;5036691;28;20205;-79
2023/12/29 04:30:43;;;;;;;7.80;7.00;;;;;;;-142.06;100.00;64312.41;5055216;28;20200;-80
2023/12/29 04:33:11;;;;;;;8.10;6.97;;;;;;;-142.06;100.00;64312.41;5023386;28;20232;-79
2023/12/29 04:35:38;;;;;;;8.43;7.40;;;;;;;-142.06;100.00;64312.41;5059080;28;20197;-79
2023/12/29 04:38:06;;;;;;;7.87;7.07;;;;;;;-142.06;100.00;64312.41;5039160;28;20698;-79
2023/12/29 04:40:36;;;;;;;8.90;7.50;;;;;;;-142.06;100.00;64312.41;5055267;28;20206;-79
2023/12/29 04:43:03;;;;;;;8.60;7.43;;;;;;;-142.06;100.00;64312.41;5038434;28;20225;-79
2023/12/29 04:45:29;;;;;;;10.27;8.40;;;;;;;-142.06;100.00;64312.41;5058157;28;20197;-81
2023/12/29 04:47:56;;;;;;;9.47;8.40;;;;;;;-142.06;100.00;64312.41;5038739;28;20217;-80
2023/12/29 04:50:23;;;;;;;9.20;7.93;;;;;;;-142.06;100.00;64312.41;5039568;28;20229;-78
2023/12/29 04:52:50;;;;;;;8.70;7.80;;;;;;;-142.06;100.00;64312.41;5054686;28;20190;-81
2023/12/29 04:55:17;;;;;;;8.57;7.67;;;;;;;-142.06;100.00;64312.41;5036370;28;20205;-78
2023/12/29 04:57:44;;;;;;;9.70;7.87;;;;;;;-142.06;100.00;64312.41;5017502;28;20292;-81
2023/12/29 05:00:13;;;;;;;7.97;7.17;;;;;;;-142.06;100.00;64312.41;5036318;28;20197;-80
2023/12/29 05:02:40;;;;;;;8.80;7.90;;;;;;;-142.06;100.00;64312.41;5052783;28;20217;-79
2023/12/29 05:05:07;;;;;;;9.30;7.80;;;;;;;-142.06;100.00;64312.41;5036418;28;20201;-81
2023/12/29 05:07:34;;;;;;;13.50;10.23;;;;;;;-142.06;100.00;64312.41;5047238;28;20193;-81
2023/12/29 05:10:01;;;;;;;12.83;9.40;;;;;;;-142.06;100.00;64312.41;5055249;28;20201;-80
2023/12/29 05:12:28;;;;;;;16.43;10.70;;;;;;;-142.06;100.00;64312.41;5052491;28;20201;-80
2023/12/29 05:14:55;;;;;;;13.00;9.70;;;;;;;-142.06;100.00;64312.41;5037541;28;20205;-80
2023/12/29 05:17:21;;;;;;;12.87;9.87;;;;;;;-142.06;100.00;64312.41;5052358;28;20201;-80
2023/12/29 05:19:48;;;;;;;12.70;9.90;;;;;;;-142.06;100.00;64312.41;5053700;28;20205;-80
2023/12/29 05:22:17;;;;;;;12.57;9.07;;;;;;;-142.06;100.00;64312.41;5036624;28;20332;-78
2023/12/29 05:24:45;;;;;;;9.97;8.07;;;;;;;-142.06;100.00;64312.41;5035892;28;20691;-79
2023/12/29 05:27:12;;;;;;;10.43;8.53;;;;;;;-142.06;100.00;64312.41;5048214;28;20185;-81
2023/12/29 05:29:39;;;;;;;10.27;7.67;;;;;;;-142.06;100.00;64312.41;5050780;28;20214;-79
2023/12/29 05:32:06;;;;;;;8.60;7.07;;;;;;;-142.06;100.00;64312.41;5052332;28;20201;-80
2023/12/29 05:34:34;;;;;;;7.90;7.10;;;;;;;-142.06;100.00;64312.41;5048109;28;20194;-80
2023/12/29 05:37:00;;;;;;;7.90;6.73;;;;;;;-142.06;100.00;64312.41;5052418;28;20685;-80
2023/12/29 05:39:29;;;;;;;7.70;6.17;;;;;;;-142.06;100.00;64312.41;5032886;28;20688;-81
2023/12/29 05:41:55;;;;;;;7.73;6.87;;;;;;;-142.06;100.00;64312.41;5035847;28;20197;-80
2023/12/29 05:44:22;;;;;;;7.83;6.80;;;;;;;-142.06;100.00;64312.41;5026023;28;20728;-82
2023/12/29 05:46:49;;;;;;;7.63;6.80;;;;;;;-142.06;100.00;64312.41;5035964;28;20220;-79
2023/12/29 05:49:16;;;;;;;8.30;7.10;;;;;;;-142.06;100.00;64312.41;5052470;28;20216;-78
2023/12/29 05:51:44;;;;;;;7.90;6.37;;;;;;;-142.06;100.00;64312.41;5027023;28;20201;-80
2023/12/29 05:54:11;;;;;;;6.53;5.73;;;;;;;-142.06;100.00;64312.41;5028528;28;20188;-79
2023/12/29 05:56:38;;;;;;;8.00;7.20;;;;;;;-142.06;100.00;64312.41;5013890;28;20216;-81
2023/12/29 05:59:05;;;;;;;7.80;6.53;;;;;;;-142.06;100.00;64312.41;5035219;28;20209;-80
2023/12/29 06:01:31;;;;;;;9.23;7.57;;;;;;;-142.06;100.00;64312.41;5050269;28;20202;-80
2023/12/29 06:03:59;;;;;;;8.70;7.37;;;;;;;-142.06;100.00;64312.41;5032618;28;20253;-82
2023/12/29 06:06:25;;;;;;;8.83;7.77;;;;;;;-142.06;100.00;64312.41;5050502;28;20198;-80
2023/12/29 06:08:52;;;;;;;8.20;7.07;;;;;;;-142.06;100.00;64312.41;5042861;28;20189;-78
2023/12/29 06:11:19;;;;;;;8.87;6.90;;;;;;;-142.06;100.00;64312.41;5031049;28;20674;-79
2023/12/29 06:13:46;;;;;;;9.53;7.47;;;;;;;-142.06;100.00;64312.41;5018541;28;20197;-79
2023/12/29 06:16:19;;;;;;;8.07;7.03;;;;;;;-142.06;100.00;64312.41;5034947;28;20201;-79
2023/12/29 06:18:47;;;;;;;10.13;7.00;;;;;;;-142.06;100.00;64312.41;5035030;28;20233;-79
2023/12/29 06:21:14;;;;;;;7.63;6.70;;;;;;;-142.06;100.00;64312.41;5017910;28;20197;-82
2023/12/29 06:23:41;;;;;;;7.90;6.70;;;;;;;-142.06;100.00;64312.41;5018313;28;20224;-78
2023/12/29 06:26:18;;;;;;;7.97;6.43;;;;;;;-142.06;100.00;64312.41;5040288;28;20205;-79
2023/12/29 06:28:45;;;;;;;7.70;6.17;;;;;;;-142.06;100.00;64312.41;5039730;28;20213;-81
2023/12/29 06:31:13;;;;;;;5.93;5.33;;;;;;;-142.06;100.00;64312.41;5034617;28;20182;-81
2023/12/29 06:33:43;;;;;;;6.07;4.93;;;;;;;-142.06;100.00;64312.41;5050890;28;20185;-80
2023/12/29 06:36:10;;;;;;;5.90;5.30;;;;;;;-142.06;100.00;64312.41;5026223;28;20202;-80
2023/12/29 06:38:37;;;;;;;6.20;4.70;;;;;;;-142.06;100.00;64312.41;5048350;28;20233;-78
2023/12/29 06:41:04;;;;;;;4.70;4.03;;;;;;;-142.06;100.00;64312.41;5050934;28;20280;-81
2023/12/29 06:43:33;;;;;;;3.93;3.53;;;;;;;-142.06;100.00;64312.41;5034689;28;20227;-79
2023/12/29 06:46:00;;;;;;;3.90;3.50;;;;;;;-142.06;100.00;64312.41;5022868;28;20213;-79
2023/12/29 06:48:27;;;;;;;3.73;3.33;;;;;;;-142.06;100.00;64312.41;5034673;28;20197;-81
2023/12/29 06:50:55;;;;;;;3.10;2.73;;;;;;;-142.06;100.00;64312.41;5030280;28;20202;-79
2023/12/29 06:53:22;;;;;;;4.10;2.70;;;;;;;-142.06;100.00;64312.41;5034010;28;20201;-78
2023/12/29 06:55:49;;;;;;;4.03;2.80;;;;;;;-142.06;100.00;64312.41;5023002;28;20265;-80
2023/12/29 06:58:16;;;;;;;2.50;2.30;;;;;;;-142.06;100.00;64312.41;5011687;28;20214;-80
2023/12/29 07:00:43;;;;;;;3.70;2.93;;;;;;;-142.06;100.00;64312.41;5039636;28;20301;-79
2023/12/29 07:03:14;;;;;;;3.23;2.80;;;;;;;-142.06;100.00;64312.41;5042795;28;20217;-80
2023/12/29 07:05:41;;;;;;;3.40;2.87;;;;;;;-142.06;100.00;64312.41;5046544;28;20217;-79
2023/12/29 07:08:08;;;;;;;3.60;3.00;;;;;;;-142.06;100.00;64312.41;5047466;28;20190;-80
2023/12/29 07:10:35;;;;;;;4.80;3.20;;;;;;;-142.06;100.00;64312.41;5045216;28;20212;-80
2023/12/29 07:13:02;;;;;;;3.67;3.00;;;;;;;-142.06;100.00;64312.41;5042093;28;20674;-83
2023/12/29 07:15:29;;;;;;;3.80;3.50;;;;;;;-142.06;100.00;64312.41;5038219;28;20205;-80
2023/12/29 07:17:55;;;;;;;3.77;3.30;;;;;;;-142.06;100.00;64312.41;5034384;28;20205;-81
2023/12/29 07:20:22;;;;;;;4.43;3.83;;;;;;;-142.06;100.00;64312.41;5018118;28;20216;-81
2023/12/29 07:22:49;;;;;;;4.10;3.40;;;;;;;-142.06;100.00;64312.41;5051805;28;20248;-80
2023/12/29 07:25:16;;;;;;;5.40;3.83;;;;;;;-142.06;100.00;64312.41;5056259;28;20189;-80
2023/12/29 07:27:43;;;;;;;4.10;3.70;;;;;;;-142.06;100.00;64312.41;5047988;28;20670;-80
2023/12/29 07:30:11;;;;;;;5.20;3.97;;;;;;;-142.06;100.00;64312.41;5033900;28;20301;-80
2023/12/29 07:32:37;;;;;;;4.43;4.03;;;;;;;-142.06;100.00;64312.41;5051314;28;20208;-81
2023/12/29 07:35:04;;;;;;;4.60;3.63;;;;;;;-142.06;100.00;64312.41;5052567;28;20278;-81
2023/12/29 07:37:31;;;;;;;4.90;4.17;;;;;;;-142.06;100.00;64312.41;5051895;28;20233;-79
2023/12/29 07:39:58;;;;;;;4.17;3.50;;;;;;;-142.06;100.00;64312.41;5051051;28;20193;-80
2023/12/29 07:42:25;;;;;;;3.90;3.50;;;;;;;-142.06;100.00;64312.41;5037183;28;20198;-83
2023/12/29 07:44:55;;;;;;;3.70;3.30;;;;;;;-142.06;100.00;64312.41;5053710;28;20216;-78
2023/12/29 07:47:21;;;;;;;4.30;3.50;;;;;;;-142.06;100.00;64312.41;5034247;28;20206;-81
2023/12/29 07:49:48;;;;;;;3.63;3.30;;;;;;;-142.06;100.00;64312.41;5037088;28;20209;-81
2023/12/29 07:52:15;;;;;;;3.03;2.73;;;;;;;-142.06;100.00;64312.41;5035741;28;20299;-79
2023/12/29 07:54:42;;;;;;;3.10;2.60;;;;;;;-142.06;100.00;64312.41;5050571;28;20681;-83
2023/12/29 07:57:09;;;;;;;3.77;2.87;;;;;;;-142.06;100.00;64312.41;5051749;28;20272;-79
2023/12/29 07:59:36;;;;;;;2.90;2.53;;;;;;;-142.06;100.00;64312.41;5050530;28;20202;-81
2023/12/29 08:02:02;;;;;;;3.47;2.40;;;;;;;-142.06;100.00;64312.41;5035696;28;20197;-80
2023/12/29 08:04:29;;;;;;;3.33;2.60;;;;;;;-142.06;100.00;64312.41;5053325;28;20214;-81
2023/12/29 08:06:56;;;;;;;3.10;2.47;;;;;;;-142.06;100.00;64312.41;5047559;28;20232;-80
2023/12/29 08:09:23;;;;;;;2.87;2.20;;;;;;;-142.06;100.00;64312.41;5053038;28;20193;-80
2023/12/29 08:11:50;;;;;;;3.27;2.40;;;;;;;-142.06;100.00;64312.41;5036431;28;20198;-80
2023/12/29 08:14:17;;;;;;;7.03;4.07;;;;;;;-142.06;100.00;64312.41;5050179;28;20198;-81
2023/12/29 08:16:43;;;;;;;5.73;3.73;;;;;;;-142.06;100.00;64312.41;5054172;28;20194;-78
2023/12/29 08:19:11;;;;;;;6.17;4.30;;;;;;;-142.06;100.00;64312.41;5053903;28;20296;-79
2023/12/29 08:21:37;;;;;;;2.80;2.30;;;;;;;-142.06;100.00;64312.41;5053991;28;20197;-79
2023/12/29 08:24:05;;;;;;;2.23;1.70;;;;;;;-142.06;100.00;64312.41;5037575;28;20224;-80
2023/12/29 08:26:31;;;;;;;3.73;2.27;;;;;;;-142.06;100.00;64312.41;5052604;28;20186;-79
2023/12/29 08:28:58;;;;;;;3.60;3.00;;;;;;;-142.06;100.00;64312.41;5035992;28;20245;-80
2023/12/29 08:31:26;;;;;;;4.10;2.40;;;;;;;-142.06;100.00;64312.41;5038236;28;20201;-82
2023/12/29 08:33:53;;;;;;;3.43;2.87;;;;;;;-142.06;100.00;64312.41;5051119;28;20217;-78
2023/12/29 08:36:20;;;;;;;3.13;2.80;;;;;;;-142.06;100.00;64312.41;5050382;28;20194;-77
2023/12/29 08:38:47;;;;;;;3.00;2.80;;;;;;;-142.06;100.00;64312.41;5045455;28;20202;-79
2023/12/29 08:41:14;;;;;;;3.17;2.87;;;;;;;-142.06;100.00;64312.41;5035529;28;20205;-81
2023/12/29 08:43:41;;;;;;;3.00;2.33;;;;;;;-142.06;100.00;64312.41;5032775;28;20250;-78
2023/12/29 08:46:08;;;;;;;3.53;2.43;;;;;;;-142.06;100.00;64312.41;5050992;28;20197;-81
2023/12/29 08:48:35;;;;;;;3.27;2.53;;;;;;;-142.06;100.00;64312.41;5034240;28;20231;-79
2023/12/29 08:51:02;;;;;;;2.70;2.50;;;;;;;-142.06;100.00;64312.41;5049570;28;20189;-78
2023/12/29 08:53:33;;;;;;;3.13;2.43;;;;;;;-142.06;100.00;64312.41;5031639;28;20223;-80
2023/12/29 08:56:01;;;;;;;2.67;2.30;;;;;;;-142.06;100.00;64312.41;5052083;28;20284;-79
2023/12/29 08:58:28;;;;;;;2.70;2.30;;;;;;;-142.06;100.00;64312.41;5032800;28;20208;-79
2023/12/29 09:00:55;;;;;;;2.50;2.30;;;;;;;-142.06;100.00;64312.41;5049122;28;20197;-80
2023/12/29 09:03:22;;;;;;;2.50;2.30;;;;;;;-142.06;100.00;64312.41;5049407;28;20204;-80
2023/12/29 09:05:49;;;;;;;3.67;2.80;;;;;;;-142.06;100.00;64312.41;5049913;28;20200;-79
2023/12/29 09:08:16;;;;;;;2.50;2.30;;;;;;;-142.06;100.00;64312.41;5049217;28;20206;-80
2023/12/29 09:10:43;;;;;;;3.77;2.60;;;;;;;-142.06;100.00;64312.41;5049443;28;20186;-79
2023/12/29 09:13:09;;;;;;;4.07;3.20;;;;;;;-142.06;100.00;64312.41;5045425;28;20200;-79
2023/12/29 09:15:37;;;;;;;3.67;2.90;;;;;;;-142.06;100.00;64312.41;5050800;28;20197;-80
2023/12/29 09:18:04;;;;;;;3.60;2.90;;;;;;;-142.06;100.00;64312.41;5050409;28;20221;-80
2023/12/29 09:20:32;;;;;;;2.70;2.50;;;;;;;-142.06;100.00;64312.41;5050644;28;20215;-78
2023/12/29 09:22:59;;;;;;;2.30;2.10;;;;;;;-142.06;100.00;64312.41;5050141;28;20201;-80
2023/12/29 09:25:26;;;;;;;3.23;2.30;;;;;;;-142.06;100.00;64312.41;5051248;28;20221;-79
2023/12/29 09:27:53;;;;;;;3.23;2.30;;;;;;;-142.06;100.00;64312.41;5050417;28;20284;-80
2023/12/29 09:30:20;;;;;;;2.80;2.60;;;;;;;-142.06;100.00;64312.41;5050864;28;20224;-79
2023/12/29 09:32:47;;;;;;;3.43;3.00;;;;;;;-142.06;100.00;64312.41;5050065;28;20292;-79
2023/12/29 09:35:14;;;;;;;3.03;2.73;;;;;;;-142.06;100.00;64312.41;5051271;28;20654;-79
2023/12/29 09:37:41;;;;;;;3.57;2.63;;;;;;;-142.06;100.00;64312.41;5049880;28;20239;-79
2023/12/29 09:40:10;;;;;;;3.07;2.70;;;;;;;-142.06;100.00;64312.41;5049926;28;20206;-79
2023/12/29 09:42:38;;;;;;;3.53;3.23;;;;;;;-142.06;100.00;64312.41;5049888;28;20197;-79
2023/12/29 09:45:08;;;;;;;3.37;3.07;;;;;;;-142.06;100.00;64312.41;5033781;28;20745;-80
2023/12/29 09:47:41;;;;;;;5.43;2.80;;;;;;;-142.06;100.00;64312.41;5049804;28;20216;-78
2023/12/29 09:50:13;;;;;;;3.23;2.93;;;;;;;-142.06;100.00;64312.41;5050081;28;20204;-78
2023/12/29 09:52:40;;;;;;;3.20;2.90;;;;;;;-142.06;100.00;64312.41;5049699;28;20193;-78
2023/12/29 09:55:11;;;;;;;3.07;2.77;;;;;;;-142.06;100.00;64312.41;5049922;28;20189;-80
2023/12/29 09:57:38;;;;;;;3.10;2.80;;;;;;;-142.06;100.00;64312.41;5032505;28;20258;-79
2023/12/29 10:00:10;;;;;;;3.70;3.03;;;;;;;-142.06;100.00;64312.41;5051154;28;20263;-79
2023/12/29 10:02:37;;;;;;;3.73;2.83;;;;;;;-142.06;100.00;64312.41;5033183;28;20192;-78
2023/12/29 10:05:05;;;;;;;3.50;2.93;;;;;;;-142.06;100.00;64312.41;5032112;28;20201;-79
2023/12/29 10:07:38;;;;;;;3.10;2.90;;;;;;;-142.06;100.00;64312.41;5048881;28;20190;-80
2023/12/29 10:10:06;;;;;;;3.20;2.90;;;;;;;-142.06;100.00;64312.41;5048582;28;20268;-78
2023/12/29 10:12:34;;;;;;;3.00;2.70;;;;;;;-142.06;100.00;64312.41;5048936;28;20192;-80
2023/12/29 10:15:10;;;;;;;3.40;2.80;;;;;;;-142.06;100.00;64312.41;5049322;28;20276;-78
2023/12/29 10:17:43;;;;;;;3.40;3.10;;;;;;;-142.06;100.00;64312.41;5032050;28;20201;-79
2023/12/29 10:20:17;;;;;;;3.27;2.97;;;;;;;-142.06;100.00;64312.41;5049198;28;20201;-78
2023/12/29 10:22:51;;;;;;;3.93;3.33;;;;;;;-142.06;100.00;64312.41;5050449;28;20259;-78
2023/12/29 10:25:19;;;;;;;3.33;2.97;;;;;;;-142.06;100.00;64312.41;5049379;28;20346;-80
2023/12/29 10:27:46;;;;;;;4.27;3.87;;;;;;;-142.06;100.00;64312.41;5049038;28;20189;-78
2023/12/29 10:30:14;;;;;;;3.37;3.00;;;;;;;-142.06;100.00;64312.41;5050422;28;20214;-78
2023/12/29 10:32:54;;;;;;;3.50;3.20;;;;;;;-142.06;100.00;64312.41;5048428;28;20289;-78
2023/12/29 10:35:21;;;;;;;3.13;2.83;;;;;;;-142.06;100.00;64312.41;5049507;28;20258;-79
2023/12/29 10:37:48;;;;;;;3.77;3.20;;;;;;;-142.06;100.00;64312.41;5048723;28;20252;-81
2023/12/29 10:40:18;;;;;;;4.13;3.50;;;;;;;-142.06;100.00;64312.41;5046655;28;20499;-80
2023/12/29 10:42:55;;;;;;;5.20;3.90;;;;;;;-142.06;100.00;64312.41;5049007;28;20197;-80
2023/12/29 10:45:24;;;;;;;2.70;2.50;;;;;;;-142.06;100.00;64312.41;5048548;28;20216;-77
2023/12/29 10:47:51;;;;;;;3.00;2.70;;;;;;;-142.06;100.00;64312.41;5031607;28;20191;-79
2023/12/29 10:50:18;;;;;;;3.40;2.60;;;;;;;-142.06;100.00;64312.41;5030093;28;20233;-78
2023/12/29 10:52:46;;;;;;;3.67;3.13;;;;;;;-142.06;100.00;64312.41;5046711;28;20194;-79
2023/12/29 10:55:13;;;;;;;4.83;3.70;;;;;;;-142.06;100.00;64312.41;5044199;28;20297;-77
2023/12/29 10:57:40;;;;;;;3.40;3.10;;;;;;;-142.06;100.00;64312.41;5050692;28;20194;-80
2023/12/29 11:00:08;;;;;;;3.90;2.50;;;;;;;-142.06;100.00;64312.41;5050007;28;20204;-82
2023/12/29 11:02:35;;;;;;;1.87;1.73;;;;;;;-142.06;100.00;64312.41;5033024;28;20193;-80
2023/12/29 11:05:07;;;;;;;2.80;2.30;;;;;;;-142.06;100.00;64312.41;5051111;28;20221;-79
2023/12/29 11:07:36;;;;;;;6.10;4.27;;;;;;;-142.06;100.00;64312.41;5031008;28;20217;-79